Time;durP1;ratioP1;P1;durP2;ratioP2;P2;SDS_P1;SDS_P2;PMS_P1;PMS_P2;Temp;Humidity;BMP_temperature;BMP_pressure;BME280_temperature;BME280_humidity;BME280_pressure;Samples;Min_cycle;Max_cycle;Signal;HPM_P1;HPM_P2
2023/06/26 00:02:03;;;;;;;35.22;9.48;;;;;;;-140.66;100.00;55571.53;5115019;28;20090;-72
2023/06/26 00:04:53;;;;;;;31.27;9.73;;;;;;;-140.66;100.00;55571.53;5117295;28;20384;-71
2023/06/26 00:07:39;;;;;;;32.33;9.38;;;;;;;-140.66;100.00;55571.53;5115019;28;20095;-71
2023/06/26 00:10:25;;;;;;;28.00;9.90;;;;;;;-140.66;100.00;55571.53;5102244;28;20027;-71
2023/06/26 00:13:12;;;;;;;31.02;10.25;;;;;;;-140.66;100.00;55571.53;5116921;28;20024;-72
2023/06/26 00:15:58;;;;;;;34.40;10.32;;;;;;;-140.66;100.00;55571.53;5117114;28;20439;-71
2023/06/26 00:18:43;;;;;;;29.00;10.15;;;;;;;-140.66;100.00;55571.53;5115468;28;20044;-71
2023/06/26 00:21:29;;;;;;;28.02;10.05;;;;;;;-140.66;100.00;55571.53;5116756;28;20466;-71
2023/06/26 00:24:15;;;;;;;31.10;10.73;;;;;;;-140.66;100.00;55571.53;5115218;28;20028;-71
2023/06/26 00:27:01;;;;;;;29.38;10.68;;;;;;;-140.66;100.00;55571.53;5115298;28;20020;-71
2023/06/26 00:29:46;;;;;;;23.00;9.85;;;;;;;-140.66;100.00;55571.53;5116193;28;20462;-71
2023/06/26 00:32:32;;;;;;;24.90;8.85;;;;;;;-140.66;100.00;55571.53;5116349;28;20031;-71
2023/06/26 00:35:18;;;;;;;26.42;9.48;;;;;;;-140.66;100.00;55571.53;5115302;28;20037;-71
2023/06/26 00:38:03;;;;;;;26.77;9.27;;;;;;;-140.66;100.00;55571.53;5115144;28;20031;-71
2023/06/26 00:40:49;;;;;;;28.90;10.15;;;;;;;-140.66;100.00;55571.53;5114738;28;20027;-72
2023/06/26 00:43:35;;;;;;;26.48;9.75;;;;;;;-140.66;100.00;55571.53;5116269;28;20031;-71
2023/06/26 00:46:20;;;;;;;20.80;9.82;;;;;;;-140.66;100.00;55571.53;5115143;28;20020;-71
2023/06/26 00:49:06;;;;;;;20.63;10.27;;;;;;;-140.66;100.00;55571.53;5116246;28;20031;-72
2023/06/26 00:51:53;;;;;;;19.23;10.02;;;;;;;-140.66;100.00;55571.53;5116513;28;20031;-73
2023/06/26 00:54:39;;;;;;;19.85;10.25;;;;;;;-140.66;100.00;55571.53;5115897;28;20080;-72
2023/06/26 00:57:25;;;;;;;18.45;10.30;;;;;;;-140.66;100.00;55571.53;5115564;28;20370;-71
2023/06/26 01:00:12;;;;;;;23.92;9.73;;;;;;;-140.66;100.00;55571.53;5115654;28;20444;-71
2023/06/26 01:02:58;;;;;;;24.20;9.73;;;;;;;-140.66;100.00;55571.53;5115579;28;20085;-71
2023/06/26 01:05:45;;;;;;;20.95;9.73;;;;;;;-140.66;100.00;55571.53;5114285;28;20020;-71
2023/06/26 01:08:31;;;;;;;30.30;9.68;;;;;;;-140.66;100.00;55571.53;5113602;28;20346;-71
2023/06/26 01:11:19;;;;;;;17.33;9.27;;;;;;;-140.66;100.00;55571.53;5116248;27;20039;-71
2023/06/26 01:14:04;;;;;;;21.10;10.40;;;;;;;-140.66;100.00;55571.53;5115020;28;20369;-71
2023/06/26 01:16:51;;;;;;;26.20;10.02;;;;;;;-140.66;100.00;55571.53;5115621;28;20019;-70
2023/06/26 01:19:38;;;;;;;22.42;10.23;;;;;;;-140.66;100.00;55571.53;5115028;28;20108;-71
2023/06/26 01:22:34;;;;;;;28.23;9.52;;;;;;;-140.66;100.00;55571.53;5114259;28;20027;-71
2023/06/26 01:25:20;;;;;;;21.58;10.18;;;;;;;-140.66;100.00;55571.53;5114700;28;20024;-70
2023/06/26 01:28:08;;;;;;;22.92;10.32;;;;;;;-140.66;100.00;55571.53;5115182;28;20437;-72
2023/06/26 01:30:54;;;;;;;21.95;10.13;;;;;;;-140.66;100.00;55571.53;5099114;28;20019;-71
2023/06/26 01:33:41;;;;;;;26.42;9.65;;;;;;;-140.66;100.00;55571.53;5115838;28;20141;-72
2023/06/26 01:36:27;;;;;;;19.92;9.80;;;;;;;-140.66;100.00;55571.53;5115619;28;20011;-72
2023/06/26 01:39:16;;;;;;;21.15;8.98;;;;;;;-140.66;100.00;55571.53;5099460;28;20050;-71
2023/06/26 01:42:02;;;;;;;22.90;9.93;;;;;;;-140.66;100.00;55571.53;5116392;28;20059;-73
2023/06/26 01:44:48;;;;;;;21.23;8.95;;;;;;;-140.66;100.00;55571.53;5113669;28;20020;-72
2023/06/26 01:47:38;;;;;;;22.70;9.40;;;;;;;-140.66;100.00;55571.53;5115098;28;20480;-71
2023/06/26 01:50:28;;;;;;;26.17;8.88;;;;;;;-140.66;100.00;55571.53;5113434;28;20035;-71
2023/06/26 01:53:20;;;;;;;29.27;8.93;;;;;;;-140.66;100.00;55571.53;5114949;28;20019;-72
2023/06/26 01:56:13;;;;;;;28.42;9.23;;;;;;;-140.66;100.00;55571.53;5114458;28;20051;-71
2023/06/26 01:59:00;;;;;;;30.10;9.30;;;;;;;-140.66;100.00;55571.53;5114668;28;20334;-71
2023/06/26 02:01:46;;;;;;;25.00;9.07;;;;;;;-140.66;100.00;55571.53;5115206;28;20019;-70
2023/06/26 02:04:32;;;;;;;29.48;9.65;;;;;;;-140.66;100.00;55571.53;5113688;28;20019;-71
2023/06/26 02:07:18;;;;;;;30.67;9.05;;;;;;;-140.66;100.00;55571.53;5114911;28;20436;-72
2023/06/26 02:10:04;;;;;;;26.13;9.68;;;;;;;-140.66;100.00;55571.53;5114830;28;20027;-72
2023/06/26 02:12:50;;;;;;;30.30;8.77;;;;;;;-140.66;100.00;55571.53;5098878;28;20020;-71
2023/06/26 02:15:35;;;;;;;31.63;9.52;;;;;;;-140.66;100.00;55571.53;5115328;28;20035;-71
2023/06/26 02:18:22;;;;;;;31.50;9.30;;;;;;;-140.66;100.00;55571.53;5115212;28;20445;-72
2023/06/26 02:21:09;;;;;;;37.65;9.93;;;;;;;-140.66;100.00;55571.53;5102203;28;20160;-72
2023/06/26 02:23:55;;;;;;;24.60;8.40;;;;;;;-140.66;100.00;55571.53;5104215;28;20055;-72
2023/06/26 02:26:40;;;;;;;27.40;8.35;;;;;;;-140.66;100.00;55571.53;5118935;28;20030;-72
2023/06/26 02:29:26;;;;;;;35.45;9.32;;;;;;;-140.66;100.00;55571.53;5118889;28;20020;-71
2023/06/26 02:32:12;;;;;;;29.85;8.30;;;;;;;-140.66;100.00;55571.53;5103921;28;20023;-71
2023/06/26 02:34:58;;;;;;;31.48;10.05;;;;;;;-140.66;100.00;55571.53;5118193;28;20016;-71
2023/06/26 02:37:44;;;;;;;30.27;9.10;;;;;;;-140.66;100.00;55571.53;5119647;27;20024;-71
2023/06/26 02:40:30;;;;;;;29.73;9.05;;;;;;;-140.66;100.00;55571.53;5105824;27;20502;-72
2023/06/26 02:43:16;;;;;;;30.25;10.05;;;;;;;-140.66;100.00;55571.53;5102577;28;20038;-71
2023/06/26 02:46:01;;;;;;;28.88;9.68;;;;;;;-140.66;100.00;55571.53;5118524;28;20032;-72
2023/06/26 02:48:47;;;;;;;21.50;8.50;;;;;;;-140.66;100.00;55571.53;5117254;28;20035;-72
2023/06/26 02:51:34;;;;;;;29.10;9.20;;;;;;;-140.66;100.00;55571.53;5117191;28;20028;-73
2023/06/26 02:54:19;;;;;;;31.80;9.45;;;;;;;-140.66;100.00;55571.53;5117089;28;20024;-72
2023/06/26 02:57:05;;;;;;;26.35;8.60;;;;;;;-140.66;100.00;55571.53;5117486;28;20015;-71
2023/06/26 02:59:51;;;;;;;43.20;11.90;;;;;;;-140.66;100.00;55571.53;5117664;28;20027;-72
2023/06/26 03:02:37;;;;;;;25.50;9.48;;;;;;;-140.66;100.00;55571.53;5118997;28;20019;-72
2023/06/26 03:05:23;;;;;;;41.10;9.48;;;;;;;-140.66;100.00;55571.53;5118478;28;20361;-72
2023/06/26 03:08:09;;;;;;;28.17;9.55;;;;;;;-140.66;100.00;55571.53;5118378;28;20456;-72
2023/06/26 03:10:55;;;;;;;28.40;9.95;;;;;;;-140.66;100.00;55571.53;5118357;28;20039;-71
2023/06/26 03:13:40;;;;;;;22.55;9.82;;;;;;;-140.66;100.00;55571.53;5116198;28;20453;-72
2023/06/26 03:16:26;;;;;;;30.10;10.43;;;;;;;-140.66;100.00;55571.53;5102544;28;20042;-72
2023/06/26 03:19:12;;;;;;;27.60;9.48;;;;;;;-140.66;100.00;55571.53;5117094;28;20059;-71
2023/06/26 03:21:58;;;;;;;32.03;9.70;;;;;;;-140.66;100.00;55571.53;5122375;28;20039;-71
2023/06/26 03:24:45;;;;;;;28.85;9.77;;;;;;;-140.66;100.00;55571.53;5116964;28;20027;-72
2023/06/26 03:27:30;;;;;;;22.77;9.38;;;;;;;-140.66;100.00;55571.53;5109279;28;20039;-70
2023/06/26 03:30:16;;;;;;;26.05;10.48;;;;;;;-140.66;100.00;55571.53;5117829;28;20437;-71
2023/06/26 03:33:02;;;;;;;23.17;10.60;;;;;;;-140.66;100.00;55571.53;5118710;28;20346;-71
2023/06/26 03:35:48;;;;;;;25.60;10.30;;;;;;;-140.66;100.00;55571.53;5101542;28;20015;-71
2023/06/26 03:38:33;;;;;;;23.15;10.18;;;;;;;-140.66;100.00;55571.53;5101644;28;20046;-71
2023/06/26 03:41:19;;;;;;;24.92;11.07;;;;;;;-140.66;100.00;55571.53;5101357;28;20019;-71
2023/06/26 03:44:05;;;;;;;29.30;11.55;;;;;;;-140.66;100.00;55571.53;5101392;28;20038;-71
2023/06/26 03:46:50;;;;;;;31.80;12.20;;;;;;;-140.66;100.00;55571.53;5117351;28;20026;-71
2023/06/26 03:49:36;;;;;;;29.35;12.43;;;;;;;-140.66;100.00;55571.53;5116927;28;20045;-70
2023/06/26 03:52:22;;;;;;;28.45;12.60;;;;;;;-140.66;100.00;55571.53;5117363;28;20039;-71
2023/06/26 03:55:08;;;;;;;23.70;13.27;;;;;;;-140.66;100.00;55571.53;5117693;28;20544;-70
2023/06/26 03:57:54;;;;;;;27.98;11.98;;;;;;;-140.66;100.00;55571.53;5117680;28;20031;-71
2023/06/26 04:00:40;;;;;;;27.60;13.32;;;;;;;-140.66;100.00;55571.53;5116725;28;20031;-71
2023/06/26 04:03:26;;;;;;;29.33;12.82;;;;;;;-140.66;100.00;55571.53;5115686;28;20024;-72
2023/06/26 04:06:12;;;;;;;34.40;13.52;;;;;;;-140.66;100.00;55571.53;5117020;28;20381;-71
2023/06/26 04:08:57;;;;;;;23.67;11.82;;;;;;;-140.66;100.00;55571.53;5117767;28;20040;-72
2023/06/26 04:11:43;;;;;;;31.52;13.10;;;;;;;-140.66;100.00;55571.53;5116453;28;20035;-72
2023/06/26 04:14:29;;;;;;;24.58;12.13;;;;;;;-140.66;100.00;55571.53;5117136;28;20047;-72
2023/06/26 04:17:15;;;;;;;21.33;11.50;;;;;;;-140.66;100.00;55571.53;5116458;28;20034;-73
2023/06/26 04:20:01;;;;;;;26.63;12.50;;;;;;;-140.66;100.00;55571.53;5100745;28;20035;-76
2023/06/26 04:22:46;;;;;;;35.17;12.50;;;;;;;-140.66;100.00;55571.53;5116507;28;20036;-73
2023/06/26 04:25:32;;;;;;;26.90;10.20;;;;;;;-140.66;100.00;55571.53;5116218;28;20055;-71
2023/06/26 04:28:18;;;;;;;26.80;9.85;;;;;;;-140.66;100.00;55571.53;5116269;28;20032;-70
2023/06/26 04:31:04;;;;;;;25.25;9.93;;;;;;;-140.66;100.00;55571.53;5114913;28;20032;-72
2023/06/26 04:33:50;;;;;;;23.90;9.45;;;;;;;-140.66;100.00;55571.53;5115734;28;20457;-72
2023/06/26 04:36:38;;;;;;;28.70;11.27;;;;;;;-140.66;100.00;55571.53;5115245;28;20042;-73
2023/06/26 04:39:24;;;;;;;27.30;11.27;;;;;;;-140.66;100.00;55571.53;5116052;28;20039;-73
2023/06/26 04:42:11;;;;;;;26.25;10.25;;;;;;;-140.66;100.00;55571.53;5115527;28;20087;-72
2023/06/26 04:44:57;;;;;;;25.30;10.05;;;;;;;-140.66;100.00;55571.53;5116308;28;20410;-74
2023/06/26 04:47:43;;;;;;;27.73;9.70;;;;;;;-140.66;100.00;55571.53;5114970;28;20117;-73
2023/06/26 04:50:30;;;;;;;26.33;11.18;;;;;;;-140.66;100.00;55571.53;5114648;28;20023;-73
2023/06/26 04:53:16;;;;;;;29.08;9.52;;;;;;;-140.66;100.00;55571.53;5115710;28;20024;-73
2023/06/26 04:56:02;;;;;;;24.85;11.23;;;;;;;-140.66;100.00;55571.53;5114624;28;20137;-73
2023/06/26 04:58:47;;;;;;;25.10;10.88;;;;;;;-140.66;100.00;55571.53;5114978;28;20178;-73
2023/06/26 05:01:33;;;;;;;23.30;10.07;;;;;;;-140.66;100.00;55571.53;5114834;28;20027;-73
2023/06/26 05:04:19;;;;;;;31.92;11.57;;;;;;;-140.66;100.00;55571.53;5115656;28;20373;-74
2023/06/26 05:07:05;;;;;;;35.08;11.88;;;;;;;-140.66;100.00;55571.53;5100446;28;20476;-73
2023/06/26 05:09:51;;;;;;;25.73;10.73;;;;;;;-140.66;100.00;55571.53;5114944;28;20445;-72
2023/06/26 05:12:36;;;;;;;29.92;11.55;;;;;;;-140.66;100.00;55571.53;5116311;28;20398;-73
2023/06/26 05:15:22;;;;;;;29.10;11.95;;;;;;;-140.66;100.00;55571.53;5115836;28;20045;-73
2023/06/26 05:18:08;;;;;;;25.42;12.18;;;;;;;-140.66;100.00;55571.53;5114562;28;20019;-72
2023/06/26 05:20:54;;;;;;;24.33;11.85;;;;;;;-140.66;100.00;55571.53;5101032;28;20042;-73
2023/06/26 05:23:40;;;;;;;25.90;11.48;;;;;;;-140.66;100.00;55571.53;5115263;28;20063;-73
2023/06/26 05:26:27;;;;;;;32.63;12.57;;;;;;;-140.66;100.00;55571.53;5098752;28;20024;-73
2023/06/26 05:29:12;;;;;;;23.65;12.68;;;;;;;-140.66;100.00;55571.53;5115284;28;20031;-72
2023/06/26 05:31:59;;;;;;;22.20;13.18;;;;;;;-140.66;100.00;55571.53;5113899;28;20027;-72
2023/06/26 05:34:49;;;;;;;23.45;11.32;;;;;;;-140.66;100.00;55571.53;5113608;28;20377;-72
2023/06/26 05:37:35;;;;;;;31.73;12.77;;;;;;;-140.66;100.00;55571.53;5115430;28;20061;-73
2023/06/26 05:40:21;;;;;;;26.95;12.65;;;;;;;-140.66;100.00;55571.53;5114789;28;20114;-73
2023/06/26 05:43:07;;;;;;;23.92;11.75;;;;;;;-140.66;100.00;55571.53;5115060;28;20038;-74
2023/06/26 05:45:53;;;;;;;27.45;11.85;;;;;;;-140.66;100.00;55571.53;5114891;28;20052;-73
2023/06/26 05:48:39;;;;;;;22.38;11.25;;;;;;;-140.66;100.00;55571.53;5113864;28;20114;-72
2023/06/26 05:51:25;;;;;;;32.28;13.10;;;;;;;-140.66;100.00;55571.53;5114343;28;20042;-73
2023/06/26 05:54:13;;;;;;;23.83;11.15;;;;;;;-140.66;100.00;55571.53;5115471;28;20028;-73
2023/06/26 05:57:02;;;;;;;31.58;12.27;;;;;;;-140.66;100.00;55571.53;5114798;28;20023;-72
2023/06/26 05:59:48;;;;;;;30.73;12.98;;;;;;;-140.66;100.00;55571.53;5114871;28;20381;-73
2023/06/26 06:02:35;;;;;;;27.73;13.32;;;;;;;-140.66;100.00;55571.53;5115388;28;20454;-72
2023/06/26 06:05:22;;;;;;;27.65;12.20;;;;;;;-140.66;100.00;55571.53;5116081;28;20119;-74
2023/06/26 06:08:07;;;;;;;35.47;13.07;;;;;;;-140.66;100.00;55571.53;5113846;28;20032;-73
2023/06/26 06:10:53;;;;;;;29.90;11.63;;;;;;;-140.66;100.00;55571.53;5114789;28;20035;-73
2023/06/26 06:13:39;;;;;;;25.17;12.15;;;;;;;-140.66;100.00;55571.53;5098825;28;20016;-73
2023/06/26 06:16:25;;;;;;;22.73;11.50;;;;;;;-140.66;100.00;55571.53;5114019;28;20043;-73
2023/06/26 06:19:13;;;;;;;27.15;10.23;;;;;;;-140.66;100.00;55571.53;5114739;28;20104;-73
2023/06/26 06:21:58;;;;;;;24.60;11.05;;;;;;;-140.66;100.00;55571.53;5112899;28;20028;-72
2023/06/26 06:24:44;;;;;;;31.48;11.32;;;;;;;-140.66;100.00;55571.53;5114191;28;20023;-73
2023/06/26 06:27:31;;;;;;;29.13;13.93;;;;;;;-140.66;100.00;55571.53;5114190;28;20396;-73
2023/06/26 06:30:17;;;;;;;23.55;11.15;;;;;;;-140.66;100.00;55571.53;5112956;28;20123;-73
2023/06/26 06:33:02;;;;;;;29.88;11.85;;;;;;;-140.66;100.00;55571.53;5114162;28;20035;-72
2023/06/26 06:35:48;;;;;;;23.60;10.88;;;;;;;-140.66;100.00;55571.53;5114309;28;20483;-74
2023/06/26 06:38:34;;;;;;;21.08;10.00;;;;;;;-140.66;100.00;55571.53;5114200;28;20093;-74
2023/06/26 06:41:20;;;;;;;20.55;9.27;;;;;;;-140.66;100.00;55571.53;5113855;28;20061;-73
2023/06/26 06:44:06;;;;;;;20.45;10.43;;;;;;;-140.66;100.00;55571.53;5113968;28;20037;-73
2023/06/26 06:46:51;;;;;;;29.38;11.65;;;;;;;-140.66;100.00;55571.53;5099296;28;20088;-73
2023/06/26 06:49:37;;;;;;;22.05;9.75;;;;;;;-140.66;100.00;55571.53;5114141;28;20043;-73
2023/06/26 06:52:23;;;;;;;19.73;9.80;;;;;;;-140.66;100.00;55571.53;5112404;28;20033;-73
2023/06/26 06:55:09;;;;;;;15.35;7.50;;;;;;;-140.66;100.00;55571.53;5112092;28;20066;-73
2023/06/26 06:57:55;;;;;;;17.42;8.25;;;;;;;-140.66;100.00;55571.53;5112789;28;20032;-74
2023/06/26 07:00:40;;;;;;;18.67;9.55;;;;;;;-140.66;100.00;55571.53;5113973;28;20050;-74
2023/06/26 07:03:27;;;;;;;14.27;7.28;;;;;;;-140.66;100.00;55571.53;5099844;28;20402;-72
2023/06/26 07:06:12;;;;;;;14.18;7.47;;;;;;;-140.66;100.00;55571.53;5115121;28;20032;-73
2023/06/26 07:08:58;;;;;;;14.90;7.70;;;;;;;-140.66;100.00;55571.53;5103242;28;20396;-73
2023/06/26 07:11:44;;;;;;;11.88;7.13;;;;;;;-140.66;100.00;55571.53;5117130;28;20027;-73
2023/06/26 07:14:30;;;;;;;17.58;7.00;;;;;;;-140.66;100.00;55571.53;5117292;28;20110;-73
2023/06/26 07:17:15;;;;;;;13.65;6.93;;;;;;;-140.66;100.00;55571.53;5116898;28;20401;-75
2023/06/26 07:20:08;;;;;;;13.40;7.53;;;;;;;-140.66;100.00;55571.53;5116715;28;20362;-73
2023/06/26 07:22:53;;;;;;;10.98;6.55;;;;;;;-140.66;100.00;55571.53;5118464;27;20096;-72
2023/06/26 07:25:39;;;;;;;25.27;6.88;;;;;;;-140.66;100.00;55571.53;5116900;28;20495;-72
2023/06/26 07:28:25;;;;;;;11.60;6.63;;;;;;;-140.66;100.00;55571.53;5116880;28;20389;-72
2023/06/26 07:31:11;;;;;;;9.25;6.10;;;;;;;-140.66;100.00;55571.53;5117245;27;20073;-72
2023/06/26 07:33:56;;;;;;;15.90;6.75;;;;;;;-140.66;100.00;55571.53;5116784;28;20031;-72
2023/06/26 07:36:42;;;;;;;12.43;6.90;;;;;;;-140.66;100.00;55571.53;5116244;28;20012;-73
2023/06/26 07:39:28;;;;;;;11.73;6.13;;;;;;;-140.66;100.00;55571.53;5115562;28;20108;-72
2023/06/26 07:42:14;;;;;;;19.00;7.05;;;;;;;-140.66;100.00;55571.53;5116351;28;20038;-72
2023/06/26 07:44:59;;;;;;;13.77;6.10;;;;;;;-140.66;100.00;55571.53;5116656;28;20041;-72
2023/06/26 07:47:45;;;;;;;19.52;7.15;;;;;;;-140.66;100.00;55571.53;5116376;28;20031;-73
2023/06/26 07:50:31;;;;;;;11.18;6.88;;;;;;;-140.66;100.00;55571.53;5115982;28;20161;-71
2023/06/26 07:53:17;;;;;;;15.55;6.45;;;;;;;-140.66;100.00;55571.53;5116521;28;20024;-72
2023/06/26 07:56:03;;;;;;;10.20;6.55;;;;;;;-140.66;100.00;55571.53;5117035;28;20038;-72
2023/06/26 07:58:49;;;;;;;13.35;6.63;;;;;;;-140.66;100.00;55571.53;5116181;28;20533;-74
2023/06/26 08:01:34;;;;;;;10.77;6.15;;;;;;;-140.66;100.00;55571.53;5116972;28;20172;-73
2023/06/26 08:04:23;;;;;;;9.13;5.95;;;;;;;-140.66;100.00;55571.53;5117707;28;20123;-73
2023/06/26 08:07:09;;;;;;;16.38;5.88;;;;;;;-140.66;100.00;55571.53;5101596;28;20425;-72
2023/06/26 08:09:54;;;;;;;18.52;6.22;;;;;;;-140.66;100.00;55571.53;5116375;28;20125;-72
2023/06/26 08:12:42;;;;;;;19.85;7.05;;;;;;;-140.66;100.00;55571.53;5115955;28;20039;-73
2023/06/26 08:15:28;;;;;;;7.85;6.22;;;;;;;-140.66;100.00;55571.53;5101214;28;20122;-72
2023/06/26 08:18:14;;;;;;;12.85;6.78;;;;;;;-140.66;100.00;55571.53;5120055;28;20031;-72
2023/06/26 08:21:00;;;;;;;11.23;6.20;;;;;;;-140.66;100.00;55571.53;5116552;28;20036;-72
2023/06/26 08:23:46;;;;;;;16.23;6.47;;;;;;;-140.66;100.00;55571.53;5117065;28;20375;-73
2023/06/26 08:26:31;;;;;;;10.07;6.47;;;;;;;-140.66;100.00;55571.53;5116368;28;20032;-73
2023/06/26 08:29:17;;;;;;;13.82;6.90;;;;;;;-140.66;100.00;55571.53;5117262;27;20027;-73
2023/06/26 08:32:03;;;;;;;10.18;5.90;;;;;;;-140.66;100.00;55571.53;5115370;28;20032;-73
2023/06/26 08:34:50;;;;;;;17.00;6.78;;;;;;;-140.66;100.00;55571.53;5118142;28;20035;-72
2023/06/26 08:37:36;;;;;;;19.42;6.75;;;;;;;-140.66;100.00;55571.53;5131916;28;20030;-74
2023/06/26 08:40:21;;;;;;;18.17;6.82;;;;;;;-140.66;100.00;55571.53;5116009;28;20034;-73
2023/06/26 08:43:08;;;;;;;8.02;6.65;;;;;;;-140.66;100.00;55571.53;5115903;28;20457;-72
2023/06/26 08:45:54;;;;;;;15.52;6.07;;;;;;;-140.66;100.00;55571.53;5115452;28;20410;-73
2023/06/26 08:48:45;;;;;;;52.40;8.25;;;;;;;-140.66;100.00;55571.53;5115770;28;20036;-72
2023/06/26 08:51:35;;;;;;;8.68;6.28;;;;;;;-140.66;100.00;55571.53;5101032;28;20096;-72
2023/06/26 08:54:28;;;;;;;11.65;6.45;;;;;;;-140.66;100.00;55571.53;5100019;28;20023;-72
2023/06/26 08:57:18;;;;;;;16.55;6.60;;;;;;;-140.66;100.00;55571.53;5115513;28;20384;-73
2023/06/26 09:00:05;;;;;;;12.52;6.85;;;;;;;-140.66;100.00;55571.53;5115388;28;20033;-72
2023/06/26 09:02:50;;;;;;;14.15;6.95;;;;;;;-140.66;100.00;55571.53;5114964;28;20023;-72
2023/06/26 09:05:36;;;;;;;25.23;7.68;;;;;;;-140.66;100.00;55571.53;5115241;28;20070;-73
2023/06/26 09:08:22;;;;;;;11.52;6.53;;;;;;;-140.66;100.00;55571.53;5115313;28;20449;-73
2023/06/26 09:11:08;;;;;;;11.23;6.40;;;;;;;-140.66;100.00;55571.53;5099080;28;20032;-73
2023/06/26 09:13:55;;;;;;;14.43;6.40;;;;;;;-140.66;100.00;55571.53;5115405;28;20031;-73
2023/06/26 09:16:42;;;;;;;11.13;6.95;;;;;;;-140.66;100.00;55571.53;5113914;28;20428;-73
2023/06/26 09:19:28;;;;;;;10.10;6.53;;;;;;;-140.66;100.00;55571.53;5115466;28;20055;-72
2023/06/26 09:22:14;;;;;;;11.70;6.60;;;;;;;-140.66;100.00;55571.53;5100531;28;20106;-73
2023/06/26 09:25:00;;;;;;;11.07;6.78;;;;;;;-140.66;100.00;55571.53;5114397;28;20027;-72
2023/06/26 09:27:46;;;;;;;11.55;7.43;;;;;;;-140.66;100.00;55571.53;5113654;28;20039;-72
2023/06/26 09:30:32;;;;;;;9.82;6.78;;;;;;;-140.66;100.00;55571.53;5113795;28;20067;-72
2023/06/26 09:33:20;;;;;;;11.55;7.03;;;;;;;-140.66;100.00;55571.53;5115852;28;20024;-72
2023/06/26 09:36:07;;;;;;;12.50;7.60;;;;;;;-140.66;100.00;55571.53;5114324;28;20102;-72
2023/06/26 09:38:52;;;;;;;11.30;7.03;;;;;;;-140.66;100.00;55571.53;5115627;28;20024;-73
2023/06/26 09:41:41;;;;;;;11.93;7.20;;;;;;;-140.66;100.00;55571.53;5114351;28;20031;-73
2023/06/26 09:44:26;;;;;;;12.23;7.38;;;;;;;-140.66;100.00;55571.53;5115445;28;20023;-72
2023/06/26 09:47:15;;;;;;;14.30;8.00;;;;;;;-140.66;100.00;55571.53;5099803;28;20034;-73
2023/06/26 09:50:04;;;;;;;11.93;7.65;;;;;;;-140.66;100.00;55571.53;5115204;28;20031;-73
2023/06/26 09:52:52;;;;;;;10.57;7.97;;;;;;;-140.66;100.00;55571.53;5113985;28;20446;-72
2023/06/26 09:55:38;;;;;;;12.95;7.38;;;;;;;-140.66;100.00;55571.53;5114312;28;20091;-73
2023/06/26 09:58:26;;;;;;;9.85;7.47;;;;;;;-140.66;100.00;55571.53;5113956;28;20023;-72
2023/06/26 10:01:13;;;;;;;10.40;7.93;;;;;;;-140.66;100.00;55571.53;5113491;28;20027;-73
2023/06/26 10:03:58;;;;;;;12.55;10.18;;;;;;;-140.66;100.00;55571.53;5113375;28;20065;-72
2023/06/26 10:06:51;;;;;;;10.07;8.07;;;;;;;-140.66;100.00;55571.53;5115092;28;20020;-73
2023/06/26 10:09:41;;;;;;;11.20;8.27;;;;;;;-140.66;100.00;55571.53;5113184;28;20035;-71
2023/06/26 10:12:29;;;;;;;14.20;8.90;;;;;;;-140.66;100.00;55571.53;5113468;28;20020;-73
2023/06/26 10:15:16;;;;;;;13.55;8.40;;;;;;;-140.66;100.00;55571.53;5115096;28;20024;-72
2023/06/26 10:18:02;;;;;;;11.25;8.13;;;;;;;-140.66;100.00;55571.53;5113212;28;20024;-72
2023/06/26 10:20:50;;;;;;;17.48;9.07;;;;;;;-140.66;100.00;55571.53;5093073;28;20043;-72
2023/06/26 10:23:40;;;;;;;14.52;8.63;;;;;;;-140.66;100.00;55571.53;5093967;28;20039;-72
2023/06/26 10:26:28;;;;;;;14.38;8.82;;;;;;;-140.66;100.00;55571.53;5094495;28;20020;-73
2023/06/26 10:29:16;;;;;;;9.68;8.60;;;;;;;-140.66;100.00;55571.53;5093554;28;20032;-73
2023/06/26 10:32:05;;;;;;;14.13;9.18;;;;;;;-140.66;100.00;55571.53;5093198;28;20064;-73
2023/06/26 10:34:52;;;;;;;11.45;7.65;;;;;;;-140.66;100.00;55571.53;5080055;28;20106;-73
2023/06/26 10:37:48;;;;;;;12.32;8.70;;;;;;;-140.66;100.00;55571.53;5093527;28;20031;-73
2023/06/26 10:40:50;;;;;;;19.90;9.13;;;;;;;-140.66;100.00;55571.53;5096338;28;20089;-72
2023/06/26 10:43:38;;;;;;;10.73;8.27;;;;;;;-140.66;100.00;55571.53;5097476;28;20043;-73
2023/06/26 10:46:24;;;;;;;12.65;8.15;;;;;;;-140.66;100.00;55571.53;5083033;28;20078;-71
2023/06/26 10:49:12;;;;;;;12.20;8.43;;;;;;;-140.66;100.00;55571.53;5111563;28;20038;-71
2023/06/26 10:52:01;;;;;;;13.60;8.45;;;;;;;-140.66;100.00;55571.53;5113205;28;20093;-71
2023/06/26 10:54:47;;;;;;;10.38;7.53;;;;;;;-140.66;100.00;55571.53;5097316;28;20094;-73
2023/06/26 10:57:35;;;;;;;14.55;8.57;;;;;;;-140.66;100.00;55571.53;5097196;28;20020;-73
2023/06/26 11:00:21;;;;;;;11.65;7.57;;;;;;;-140.66;100.00;55571.53;5097690;28;20039;-73
2023/06/26 11:03:23;;;;;;;14.75;8.23;;;;;;;-140.66;100.00;55571.53;5096889;28;20028;-73
2023/06/26 11:06:13;;;;;;;11.20;8.13;;;;;;;-140.66;100.00;55571.53;5097116;28;20020;-72
2023/06/26 11:09:14;;;;;;;13.25;8.40;;;;;;;-140.66;100.00;55571.53;5119911;28;20039;-73
2023/06/26 11:12:04;;;;;;;13.45;7.75;;;;;;;-140.66;100.00;55571.53;5098429;28;20016;-72
2023/06/26 11:14:51;;;;;;;11.65;8.00;;;;;;;-140.66;100.00;55571.53;5081968;28;20066;-73
2023/06/26 11:17:37;;;;;;;17.70;9.43;;;;;;;-140.66;100.00;55571.53;5082979;28;20035;-71
2023/06/26 11:20:22;;;;;;;13.70;8.70;;;;;;;-140.66;100.00;55571.53;5114002;28;20130;-73
2023/06/26 11:23:09;;;;;;;13.02;9.15;;;;;;;-140.66;100.00;55571.53;5116109;28;20039;-73
2023/06/26 11:25:56;;;;;;;14.73;8.50;;;;;;;-140.66;100.00;55571.53;5117017;28;20027;-72
2023/06/26 11:28:51;;;;;;;12.60;7.40;;;;;;;-140.66;100.00;55571.53;5116388;28;20063;-73
2023/06/26 11:31:38;;;;;;;9.10;6.88;;;;;;;-140.66;100.00;55571.53;5117335;28;20343;-73
2023/06/26 11:34:30;;;;;;;14.23;6.93;;;;;;;-140.66;100.00;55571.53;5101322;28;20023;-73
2023/06/26 11:37:20;;;;;;;9.20;6.85;;;;;;;-140.66;100.00;55571.53;5117156;28;20024;-72
2023/06/26 11:40:19;;;;;;;9.93;6.25;;;;;;;-140.66;100.00;55571.53;5117321;28;20023;-72
2023/06/26 11:43:08;;;;;;;7.45;6.45;;;;;;;-140.66;100.00;55571.53;5117135;28;20031;-73
2023/06/26 11:45:54;;;;;;;8.18;5.43;;;;;;;-140.66;100.00;55571.53;5101577;28;20500;-72
2023/06/26 11:48:40;;;;;;;8.95;5.93;;;;;;;-140.66;100.00;55571.53;5116465;28;20083;-72
2023/06/26 11:51:28;;;;;;;9.18;5.63;;;;;;;-140.66;100.00;55571.53;5115401;28;20088;-72
2023/06/26 11:54:14;;;;;;;11.18;5.90;;;;;;;-140.66;100.00;55571.53;5117053;28;20043;-73
2023/06/26 11:57:01;;;;;;;12.30;5.80;;;;;;;-140.66;100.00;55571.53;5101920;28;20024;-74
2023/06/26 11:59:50;;;;;;;12.40;5.15;;;;;;;-140.66;100.00;55571.53;5101621;28;20055;-73
2023/06/26 12:02:36;;;;;;;6.53;5.00;;;;;;;-140.66;100.00;55571.53;5117049;28;20468;-72
2023/06/26 12:05:21;;;;;;;5.63;4.60;;;;;;;-140.66;100.00;55571.53;5116967;28;20024;-73
2023/06/26 12:08:07;;;;;;;5.97;4.78;;;;;;;-140.66;100.00;55571.53;5116476;28;20346;-73
2023/06/26 12:10:53;;;;;;;6.60;4.80;;;;;;;-140.66;100.00;55571.53;5115806;28;20031;-72
2023/06/26 12:13:39;;;;;;;5.47;4.43;;;;;;;-140.66;100.00;55571.53;5116649;28;20031;-72
2023/06/26 12:16:25;;;;;;;5.55;4.63;;;;;;;-140.66;100.00;55571.53;5116764;28;20043;-72
2023/06/26 12:19:11;;;;;;;5.78;4.40;;;;;;;-140.66;100.00;55571.53;5116046;28;20134;-71
2023/06/26 12:21:58;;;;;;;9.73;4.85;;;;;;;-140.66;100.00;55571.53;5115897;28;20054;-73
2023/06/26 12:24:45;;;;;;;6.80;4.75;;;;;;;-140.66;100.00;55571.53;5116775;28;20019;-73
2023/06/26 12:27:30;;;;;;;8.60;4.72;;;;;;;-140.66;100.00;55571.53;5115812;28;20110;-74